Aeropuerto Internacional General Rafael Buelna, México

11:10 AM MST en Febrero 12, 2016 (GMT -0700)
Gen Rafael Buelna International | | Change Station
CLOSE
Current Station
Aeropuerto
Location: Mazatlan Airport,
Altura: 33 ft
Estaciones meteorológicas cercanas

Alt 33 ft 23.16 °N, 106.27 °W | Updated 27 minutes ago

Mostly Cloudy
Muy nublado
79 ° F
Sensación térmica 79 ° F
N
0
Viento Variable Viento desde Norte

Hoy
Alta -- | Baja -- ° F
--% Posibilidad de precipitaciones
Ayer
Alta -- | Baja -- ° F
Precip. -- pul
Presión 29.99 pul
Visibilidad 8.0 Millas
Nubes Muy nublado 23000 ft
Punto de rocío 66 ° F
Humedad 65%
Precipitaciones 0.00 pul
Espesor de la nieve No disponible.
6:39 AM 5:59 PM
Creciente, 22% visible
METAR MMMZ 121743Z 00000KT 8SM BKN230 26/19 A3000 RMK SLP154 54000 963 8/002 HZY
Presión 29.99 pul
Visibilidad 8.0 Millas
Nubes Muy nublado 23000 ft
Punto de rocío 66 ° F
Humedad 65%
Precipitaciones 0.00 pul
Espesor de la nieve No disponible.
6:39 AM 5:59 PM
Creciente, 22% visible
METAR MMMZ 121743Z 00000KT 8SM BKN230 26/19 A3000 RMK SLP154 54000 963 8/002 HZY

10-Day Weather Forecast

No radar image for this location.
×

Almanac

Astronomía

Feb. 12, 2016 Salida Puesta
Hora real
Crepúsculo civil
Crepúsculo náutico
Crepúsculo astronómico
Luna
Horas de luz
Horas de luz
Tomorrow will be .
, % of the Moon is Illuminated

Extremos de hoy

Máximos del país Bajas del país

Community

WunderPhotos

Upload Photos

1,892,357 ¡fotos cargadas!

WunderBlog® & News

Nearby

Calidad del aire

  Calidad del aire Índice AQ Contaminante
Not available.

Grosos de nieve

Estación Profundido Altura

Actividad de terremotos

Ciudad Distance Mag. Tiempo y dato
Magnitud mínima muestra es 2,5.

Temperaturas de aguas costeras

Lugar Temperatura

Stations

Estaciones meteorológicas cercanas

Ubicación de la estación Temp. Vientos helados Punto de rocío Humedad Viento Precip. Alt Actualizado Tipo